createdAt,value
2023-02-16T00:00:32.373Z,48.53
2023-02-16T00:02:59.661Z,50.05
2023-02-16T00:05:32.589Z,52.03
2023-02-16T00:08:01.096Z,49.47
2023-02-16T00:10:33.394Z,49.53
2023-02-16T00:13:19.038Z,51.60
2023-02-16T00:15:47.361Z,54.10
2023-02-16T00:18:20.180Z,53.57
2023-02-16T00:20:50.228Z,51.10
2023-02-16T00:23:17.611Z,49.40
2023-02-16T00:25:44.979Z,48.90
2023-02-16T00:28:21.134Z,55.30
2023-02-16T00:30:50.548Z,57.47
2023-02-16T00:33:19.965Z,51.10
2023-02-16T00:35:47.992Z,54.03
2023-02-16T00:38:15.577Z,50.83
2023-02-16T00:40:43.563Z,55.73
2023-02-16T00:43:25.311Z,62.13
2023-02-16T00:45:54.180Z,67.93
2023-02-16T00:48:22.199Z,64.93
2023-02-16T00:50:49.776Z,66.57
2023-02-16T00:53:17.233Z,79.03
2023-02-16T00:55:45.280Z,77.17
2023-02-16T00:58:24.591Z,84.90
2023-02-16T01:00:54.906Z,65.77
2023-02-16T01:03:26.093Z,56.47
2023-02-16T01:06:12.099Z,60.43
2023-02-16T01:08:58.016Z,65.83
2023-02-16T01:11:27.054Z,64.87
2023-02-16T01:13:56.549Z,63.80
2023-02-16T01:16:38.326Z,72.37
2023-02-16T01:19:06.220Z,71.63
2023-02-16T01:21:33.436Z,67.80
2023-02-16T01:24:01.218Z,68.73
2023-02-16T01:26:38.967Z,66.63
2023-02-16T01:29:06.314Z,81.87
2023-02-16T01:31:33.619Z,85.57
2023-02-16T01:34:00.988Z,79.50
2023-02-16T01:36:33.855Z,74.20
2023-02-16T01:39:02.164Z,66.15
2023-02-16T01:42:03.630Z,60.93
2023-02-16T01:44:38.143Z,60.10
2023-02-16T01:47:17.343Z,64.27
2023-02-16T01:49:44.557Z,59.87
2023-02-16T01:52:25.918Z,54.63
2023-02-16T01:54:59.682Z,61.33
2023-02-16T01:57:44.095Z,62.70
2023-02-16T02:00:14.409Z,67.47
2023-02-16T02:02:46.988Z,61.63
2023-02-16T02:05:36.884Z,65.53
2023-02-16T02:08:12.169Z,62.77
2023-02-16T02:11:10.435Z,64.33
2023-02-16T02:13:44.973Z,63.70
2023-02-16T02:16:16.980Z,65.27
2023-02-16T02:18:45.458Z,72.57
2023-02-16T02:21:45.878Z,62.73
2023-02-16T02:24:50.221Z,67.43
2023-02-16T02:27:34.127Z,63.17
2023-02-16T02:33:00.205Z,64.10
2023-02-16T02:35:42.844Z,64.73
2023-02-16T02:38:21.611Z,74.50
2023-02-16T02:41:00.519Z,77.83
2023-02-16T02:43:49.874Z,73.77
2023-02-16T02:46:25.100Z,83.77
2023-02-16T02:48:52.564Z,79.27
2023-02-16T02:51:29.087Z,71.53
2023-02-16T02:54:20.390Z,66.73
2023-02-16T02:57:15.164Z,72.83
2023-02-16T03:00:06.060Z,73.77
2023-02-16T03:02:35.981Z,75.73
2023-02-16T03:05:06.366Z,75.87
2023-02-16T03:07:47.963Z,82.70
2023-02-16T03:10:37.259Z,79.40
2023-02-16T03:13:10.184Z,67.53
2023-02-16T03:15:39.503Z,76.80
2023-02-16T03:18:28.271Z,71.70
2023-02-16T03:21:15.291Z,83.83
2023-02-16T03:24:03.550Z,80.50
2023-02-16T03:26:51.187Z,79.23
2023-02-16T03:29:21.586Z,81.77
2023-02-16T03:31:54.316Z,76.00
2023-02-16T03:34:23.149Z,80.00
2023-02-16T03:36:55.315Z,72.87
2023-02-16T03:39:22.542Z,74.07
2023-02-16T03:41:52.370Z,77.93
2023-02-16T03:44:20.038Z,76.03
2023-02-16T03:46:49.981Z,68.50
2023-02-16T03:49:18.759Z,74.80
2023-02-16T03:51:46.117Z,68.57
2023-02-16T03:54:13.860Z,72.43
2023-02-16T03:56:42.105Z,74.20
2023-02-16T03:59:09.587Z,87.57
2023-02-16T04:01:37.080Z,125.57
2023-02-16T04:04:04.475Z,113.43
2023-02-16T04:06:31.770Z,107.47
2023-02-16T04:08:59.194Z,100.87
2023-02-16T04:11:44.937Z,95.30
2023-02-16T04:14:12.296Z,76.23
2023-02-16T04:16:39.555Z,73.97
2023-02-16T04:19:08.510Z,79.47
2023-02-16T04:21:35.916Z,90.37
2023-02-16T04:24:04.487Z,82.63
2023-02-16T04:26:33.441Z,77.10
2023-02-16T04:29:01.141Z,75.13
2023-02-16T04:31:28.416Z,79.63
2023-02-16T04:33:55.804Z,79.43
2023-02-16T04:36:23.095Z,76.80
2023-02-16T04:38:50.311Z,79.10
2023-02-16T04:41:17.440Z,74.07
2023-02-16T04:43:44.678Z,76.53
2023-02-16T04:46:12.104Z,72.47
2023-02-16T04:48:39.799Z,71.87
2023-02-16T04:51:07.273Z,75.40
2023-02-16T04:53:34.456Z,72.40
2023-02-16T04:56:01.889Z,72.40
2023-02-16T04:58:29.171Z,72.93
2023-02-16T05:00:56.333Z,72.53
2023-02-16T05:03:23.380Z,74.80
2023-02-16T05:05:50.722Z,78.97
2023-02-16T05:08:20.539Z,78.03
2023-02-16T05:11:07.972Z,69.73
2023-02-16T05:13:53.716Z,75.57
2023-02-16T05:16:23.311Z,69.63
2023-02-16T05:18:50.590Z,73.17
2023-02-16T05:21:33.096Z,63.73
2023-02-16T05:24:02.830Z,79.83
2023-02-16T05:26:30.745Z,75.57
2023-02-16T05:28:58.810Z,93.60
2023-02-16T05:31:27.479Z,155.77
2023-02-16T05:33:55.182Z,170.50
2023-02-16T05:36:22.978Z,123.67
2023-02-16T05:38:50.573Z,183.87
2023-02-16T05:41:24.045Z,84.37
2023-02-16T05:43:52.864Z,132.13
2023-02-16T05:46:21.281Z,83.73
2023-02-16T05:48:49.068Z,76.57
2023-02-16T05:51:16.357Z,82.00
2023-02-16T05:53:43.743Z,77.23
2023-02-16T05:56:11.746Z,104.00
2023-02-16T05:58:39.938Z,88.23
2023-02-16T06:01:07.635Z,93.93
2023-02-16T06:03:36.365Z,84.40
2023-02-16T06:06:04.969Z,78.73
2023-02-16T06:08:33.280Z,108.97
2023-02-16T06:11:00.982Z,95.10
2023-02-16T06:13:27.992Z,84.80
2023-02-16T06:15:57.771Z,74.57
2023-02-16T06:18:25.471Z,78.50
2023-02-16T06:20:53.281Z,82.07
2023-02-16T06:23:19.838Z,81.90
2023-02-16T06:25:50.650Z,83.30
2023-02-16T06:28:18.016Z,86.13
2023-02-16T06:30:45.373Z,92.70
2023-02-16T06:33:12.675Z,97.00
2023-02-16T06:35:40.003Z,96.33
2023-02-16T06:38:07.162Z,88.67
2023-02-16T06:40:34.396Z,87.30
2023-02-16T06:43:01.413Z,97.33
2023-02-16T06:45:28.922Z,87.25
2023-02-16T06:47:56.284Z,75.97
2023-02-16T06:50:23.488Z,82.47
2023-02-16T06:52:50.849Z,77.23
2023-02-16T06:55:18.407Z,84.30
2023-02-16T06:57:46.033Z,100.78
2023-02-16T07:00:14.011Z,201.97
2023-02-16T07:02:41.452Z,136.40
2023-02-16T07:05:08.907Z,104.47
2023-02-16T07:07:36.358Z,91.22
2023-02-16T07:10:03.988Z,93.35
2023-02-16T07:12:31.583Z,80.80
2023-02-16T07:14:58.777Z,68.20
2023-02-16T07:17:25.948Z,71.93
2023-02-16T07:19:53.278Z,60.75
2023-02-16T07:22:20.506Z,62.67
2023-02-16T07:24:47.897Z,61.40
2023-02-16T07:27:15.282Z,55.45
2023-02-16T07:29:42.514Z,52.42
2023-02-16T07:32:09.952Z,53.33
2023-02-16T07:34:37.345Z,54.92
2023-02-16T07:37:05.644Z,51.47
2023-02-16T07:39:33.148Z,51.38
2023-02-16T07:42:00.782Z,54.20
2023-02-16T07:44:28.182Z,46.65
2023-02-16T07:46:55.410Z,47.50
2023-02-16T07:49:23.256Z,47.42
2023-02-16T07:51:50.318Z,48.47
2023-02-16T07:54:17.663Z,46.70
2023-02-16T07:56:44.817Z,42.83
2023-02-16T07:59:12.173Z,48.28
2023-02-16T08:01:40.574Z,48.38
2023-02-16T08:04:08.002Z,59.90
2023-02-16T08:06:35.812Z,46.92
2023-02-16T08:09:03.348Z,56.85
2023-02-16T08:11:30.784Z,59.90
2023-02-16T08:14:00.681Z,58.92
2023-02-16T08:16:29.577Z,42.22
2023-02-16T08:18:58.106Z,52.38
2023-02-16T08:21:31.404Z,44.25
2023-02-16T08:24:04.784Z,51.03
2023-02-16T08:26:40.776Z,49.17
2023-02-16T08:29:13.664Z,49.35
2023-02-16T08:31:42.107Z,53.05
2023-02-16T08:34:11.760Z,42.40
2023-02-16T08:36:40.361Z,45.78
2023-02-16T08:39:18.446Z,39.53
2023-02-16T08:41:50.211Z,41.22
2023-02-16T08:44:19.025Z,45.83
2023-02-16T08:46:47.938Z,46.05
2023-02-16T08:49:17.767Z,42.58
2023-02-16T08:51:47.902Z,42.65
2023-02-16T08:54:19.060Z,44.90
2023-02-16T08:56:48.593Z,41.78
2023-02-16T08:59:18.268Z,41.75
2023-02-16T09:01:45.830Z,40.50
2023-02-16T09:04:14.319Z,41.88
2023-02-16T09:06:44.861Z,41.78
2023-02-16T09:09:13.909Z,44.72
2023-02-16T09:11:41.680Z,41.30
2023-02-16T09:14:12.729Z,42.33
2023-02-16T09:16:46.194Z,45.97
2023-02-16T09:19:15.433Z,41.20
2023-02-16T09:21:43.407Z,41.72
2023-02-16T09:24:12.128Z,54.25
2023-02-16T09:26:43.192Z,45.38
2023-02-16T09:29:12.981Z,43.40
2023-02-16T09:31:41.583Z,37.03
2023-02-16T09:34:20.926Z,42.70
2023-02-16T09:36:49.495Z,41.58
2023-02-16T09:39:17.880Z,42.75
2023-02-16T09:42:16.325Z,38.63
2023-02-16T09:45:12.534Z,38.80
2023-02-16T09:47:44.692Z,38.45
2023-02-16T09:50:52.607Z,41.53
2023-02-16T09:53:33.063Z,40.78
2023-02-16T09:56:14.483Z,37.38
2023-02-16T09:58:54.919Z,38.70
2023-02-16T10:01:29.412Z,42.20
2023-02-16T10:04:56.749Z,40.25
2023-02-16T10:07:44.439Z,40.88
2023-02-16T10:10:17.125Z,42.17
2023-02-16T10:12:57.210Z,40.17
2023-02-16T10:15:29.716Z,41.00
2023-02-16T10:18:08.035Z,36.45
2023-02-16T10:20:39.955Z,39.33
2023-02-16T10:23:31.997Z,39.70
2023-02-16T10:26:23.528Z,38.22
2023-02-16T10:28:55.919Z,41.67
2023-02-16T10:31:40.821Z,37.78
2023-02-16T10:34:29.753Z,33.05
2023-02-16T10:37:02.964Z,34.58
2023-02-16T10:39:45.558Z,32.63
2023-02-16T10:42:38.188Z,33.20
2023-02-16T10:45:26.273Z,33.45
2023-02-16T10:47:54.591Z,30.65
2023-02-16T10:50:45.886Z,26.70
2023-02-16T10:53:21.880Z,24.15
2023-02-16T10:55:49.272Z,29.33
2023-02-16T10:58:28.208Z,31.38
2023-02-16T11:01:04.604Z,29.30
2023-02-16T11:03:36.398Z,29.17
2023-02-16T11:06:36.531Z,30.45
2023-02-16T11:09:04.978Z,28.58
2023-02-16T11:11:40.275Z,112.20
2023-02-16T11:14:30.919Z,69.07
2023-02-16T11:17:13.957Z,43.35
2023-02-16T11:19:50.973Z,32.43
2023-02-16T11:22:44.573Z,28.55
2023-02-16T11:25:27.524Z,26.95
2023-02-16T11:28:00.682Z,30.40
2023-02-16T11:30:36.878Z,35.78
2023-02-16T11:33:27.384Z,31.50
2023-02-16T11:35:56.285Z,29.73
2023-02-16T11:38:33.289Z,26.48
2023-02-16T11:41:03.903Z,24.48
2023-02-16T11:43:38.022Z,28.85
2023-02-16T11:46:17.078Z,27.80
2023-02-16T11:49:22.495Z,25.63
2023-02-16T11:51:49.855Z,29.58
2023-02-16T11:54:36.364Z,26.75
2023-02-16T11:57:07.037Z,27.55
2023-02-16T11:59:39.657Z,30.02
2023-02-16T12:02:12.832Z,28.27
2023-02-16T12:05:01.210Z,28.83
2023-02-16T12:07:47.451Z,26.50
2023-02-16T12:10:29.439Z,26.88
2023-02-16T12:13:29.340Z,29.80
2023-02-16T12:16:03.899Z,27.95
2023-02-16T12:18:59.247Z,25.45
2023-02-16T12:21:45.755Z,28.17
2023-02-16T12:24:34.703Z,28.95
2023-02-16T12:27:07.551Z,31.08
2023-02-16T12:29:46.351Z,25.63
2023-02-16T12:32:50.728Z,26.50
2023-02-16T12:36:02.489Z,26.65
2023-02-16T12:38:29.950Z,30.05
2023-02-16T12:41:06.055Z,24.05
2023-02-16T12:43:45.195Z,26.67
2023-02-16T12:46:15.393Z,28.08
2023-02-16T12:48:57.621Z,30.80
2023-02-16T12:51:38.644Z,23.65
2023-02-16T12:54:16.666Z,26.85
2023-02-16T12:56:48.345Z,25.15
2023-02-16T12:59:26.146Z,21.20
2023-02-16T13:01:56.910Z,23.60
2023-02-16T13:04:39.390Z,23.83
2023-02-16T13:07:16.601Z,20.00
2023-02-16T13:09:52.249Z,26.00
2023-02-16T13:12:44.851Z,23.85
2023-02-16T13:15:14.880Z,22.95
2023-02-16T13:17:49.462Z,25.02
2023-02-16T13:20:20.836Z,24.88
2023-02-16T13:22:47.936Z,26.38
2023-02-16T13:25:34.092Z,26.80
2023-02-16T13:28:26.217Z,23.90
2023-02-16T13:31:31.094Z,22.80
2023-02-16T13:34:27.057Z,23.60
2023-02-16T13:37:15.154Z,24.08
2023-02-16T13:39:51.434Z,25.33
2023-02-16T13:43:00.408Z,23.23
2023-02-16T13:45:31.851Z,23.27
2023-02-16T13:47:59.936Z,24.63
2023-02-16T13:50:33.592Z,28.17
2023-02-16T13:53:22.070Z,25.70
2023-02-16T13:55:53.017Z,26.30
2023-02-16T13:58:20.261Z,23.92
2023-02-16T14:00:49.355Z,22.15
2023-02-16T14:03:22.328Z,29.15
2023-02-16T14:09:38.976Z,24.77
2023-02-16T14:12:12.354Z,24.50
2023-02-16T14:14:53.890Z,30.48
2023-02-16T14:17:24.293Z,24.55
2023-02-16T14:19:56.461Z,26.67
2023-02-16T14:22:36.011Z,29.35
2023-02-16T14:25:27.522Z,27.70
2023-02-16T14:27:54.686Z,26.08
2023-02-16T14:30:31.621Z,29.40
2023-02-16T14:33:04.888Z,26.80
2023-02-16T14:35:38.757Z,24.58
2023-02-16T14:38:22.564Z,24.35
2023-02-16T14:41:01.715Z,23.23
2023-02-16T14:43:40.011Z,29.38
2023-02-16T14:46:34.564Z,29.48
2023-02-16T14:49:38.446Z,24.88
2023-02-16T14:52:48.330Z,27.20
2023-02-16T14:55:49.563Z,21.77
2023-02-16T14:58:28.535Z,27.83
2023-02-16T15:01:18.963Z,29.13
2023-02-16T15:03:48.503Z,29.23
2023-02-16T15:06:41.699Z,26.88
2023-02-16T15:09:25.492Z,26.70
2023-02-16T15:12:21.976Z,28.05
2023-02-16T15:14:56.790Z,23.92
2023-02-16T15:17:29.890Z,24.38
2023-02-16T15:20:04.515Z,24.85
2023-02-16T15:22:32.281Z,23.85
2023-02-16T15:25:06.031Z,22.88
2023-02-16T15:30:23.679Z,23.52
2023-02-16T15:33:25.741Z,26.88
2023-02-16T15:36:07.585Z,28.33
2023-02-16T15:38:43.732Z,26.85
2023-02-16T15:41:15.783Z,27.60
2023-02-16T15:43:50.963Z,24.65
2023-02-16T15:46:34.975Z,27.70
2023-02-16T15:51:49.574Z,29.88
2023-02-16T15:54:31.532Z,25.85
2023-02-16T15:57:01.033Z,33.92
2023-02-16T15:59:41.160Z,36.08
2023-02-16T16:02:44.201Z,37.60
2023-02-16T16:05:24.619Z,41.25
2023-02-16T16:07:52.916Z,44.33
2023-02-16T16:10:40.147Z,36.58
2023-02-16T16:13:21.225Z,48.35
2023-02-16T16:15:50.646Z,48.67
2023-02-16T16:18:39.475Z,41.95
2023-02-16T16:21:34.513Z,37.42
2023-02-16T16:24:06.953Z,48.38
2023-02-16T16:26:56.141Z,58.92
2023-02-16T16:29:30.686Z,56.45
2023-02-16T16:31:58.167Z,42.22
2023-02-16T16:34:41.055Z,37.40
2023-02-16T16:37:22.169Z,32.92
2023-02-16T16:39:59.539Z,36.85
2023-02-16T16:42:26.848Z,33.00
2023-02-16T16:45:25.370Z,36.30
2023-02-16T16:47:52.918Z,34.40
2023-02-16T16:50:39.278Z,37.00
2023-02-16T16:53:31.572Z,40.45
2023-02-16T16:56:01.133Z,48.47
2023-02-16T16:58:28.854Z,44.10
2023-02-16T17:00:56.242Z,47.10
2023-02-16T17:03:23.536Z,46.63
2023-02-16T17:05:50.738Z,47.63
2023-02-16T17:08:18.028Z,48.78
2023-02-16T17:10:45.475Z,44.08
2023-02-16T17:13:17.027Z,49.08
2023-02-16T17:15:56.177Z,47.97
2023-02-16T17:18:24.160Z,49.90
2023-02-16T17:20:51.960Z,44.53
2023-02-16T17:23:21.288Z,45.40
2023-02-16T17:25:49.367Z,45.50
2023-02-16T17:28:18.453Z,39.60
2023-02-16T17:30:45.914Z,45.38
2023-02-16T17:33:13.225Z,47.15
2023-02-16T17:35:42.444Z,42.00
2023-02-16T17:38:12.651Z,54.38
2023-02-16T17:40:43.722Z,43.55
2023-02-16T17:43:13.035Z,44.53
2023-02-16T17:45:42.263Z,45.60
2023-02-16T17:48:19.314Z,40.33
2023-02-16T17:50:48.025Z,47.28
2023-02-16T17:53:17.642Z,41.20
2023-02-16T17:55:47.026Z,47.58
2023-02-16T17:58:18.665Z,40.72
2023-02-16T18:00:46.396Z,45.90
2023-02-16T18:03:13.624Z,42.58
2023-02-16T18:05:41.254Z,48.28
2023-02-16T18:08:08.658Z,46.03
2023-02-16T18:10:41.828Z,43.45
2023-02-16T18:13:11.909Z,52.17
2023-02-16T18:15:42.077Z,53.65
2023-02-16T18:18:10.820Z,56.30
2023-02-16T18:20:38.131Z,56.08
2023-02-16T18:23:05.670Z,65.25
2023-02-16T18:25:33.601Z,60.95
2023-02-16T18:28:01.218Z,63.60
2023-02-16T18:30:28.885Z,65.88
2023-02-16T18:32:56.656Z,63.58
2023-02-16T18:35:28.483Z,63.38
2023-02-16T18:37:55.948Z,59.17
2023-02-16T18:40:23.287Z,62.08
2023-02-16T18:42:51.977Z,61.85
2023-02-16T18:45:19.360Z,58.15
2023-02-16T18:47:47.615Z,67.60
2023-02-16T18:50:15.992Z,63.47
2023-02-16T18:52:43.690Z,65.70
2023-02-16T18:55:12.519Z,62.80
2023-02-16T18:57:40.341Z,70.35
2023-02-16T19:00:09.181Z,69.32
2023-02-16T19:02:36.276Z,64.20
2023-02-16T19:05:03.681Z,72.50
2023-02-16T19:07:31.056Z,74.43
2023-02-16T19:09:58.669Z,66.97
2023-02-16T19:12:27.142Z,70.22
2023-02-16T19:14:55.324Z,74.65
2023-02-16T19:17:25.947Z,69.35
2023-02-16T19:19:53.410Z,75.80
2023-02-16T19:22:20.957Z,78.55
2023-02-16T19:24:50.312Z,68.10
2023-02-16T19:27:18.915Z,75.35
2023-02-16T19:29:47.813Z,69.93
2023-02-16T19:32:15.439Z,68.20
2023-02-16T19:34:44.001Z,70.68
2023-02-16T19:37:11.507Z,69.85
2023-02-16T19:39:40.255Z,71.38
2023-02-16T19:42:07.615Z,71.10
2023-02-16T19:44:35.121Z,69.28
2023-02-16T19:47:03.884Z,76.22
2023-02-16T19:49:31.175Z,70.07
2023-02-16T19:52:02.740Z,73.72
2023-02-16T19:54:32.974Z,72.85
2023-02-16T19:57:01.137Z,75.78
2023-02-16T19:59:29.085Z,71.03
2023-02-16T20:01:56.663Z,70.55
2023-02-16T20:04:25.629Z,73.82
2023-02-16T20:06:54.825Z,74.90
2023-02-16T20:09:22.791Z,67.45
2023-02-16T20:11:51.060Z,64.87
2023-02-16T20:14:18.599Z,64.57
2023-02-16T20:16:45.953Z,63.83
2023-02-16T20:19:13.763Z,64.27
2023-02-16T20:21:44.820Z,62.00
2023-02-16T20:24:13.600Z,61.13
2023-02-16T20:26:45.566Z,62.33
2023-02-16T20:29:17.298Z,53.13
2023-02-16T20:31:50.869Z,56.43
2023-02-16T20:34:18.627Z,54.65
2023-02-16T20:36:46.074Z,53.33
2023-02-16T20:39:14.002Z,54.17
2023-02-16T20:41:42.277Z,54.10
2023-02-16T20:44:10.202Z,54.17
2023-02-16T20:46:39.794Z,49.77
2023-02-16T20:49:07.553Z,58.67
2023-02-16T20:51:37.061Z,53.83
2023-02-16T20:54:05.419Z,52.37
2023-02-16T20:56:33.020Z,56.90
2023-02-16T20:59:01.790Z,54.47
2023-02-16T21:01:37.896Z,49.63
2023-02-16T21:04:06.691Z,56.00
2023-02-16T21:06:35.313Z,48.30
2023-02-16T21:09:04.107Z,55.70
2023-02-16T21:11:31.724Z,57.37
2023-02-16T21:13:59.571Z,55.73
2023-02-16T21:16:27.114Z,51.80
2023-02-16T21:18:54.717Z,49.77
2023-02-16T21:21:22.190Z,47.73
2023-02-16T21:23:52.357Z,53.87
2023-02-16T21:26:25.542Z,50.77
2023-02-16T21:28:53.794Z,60.08
2023-02-16T21:31:24.091Z,54.43
2023-02-16T21:33:52.500Z,61.00
2023-02-16T21:36:23.084Z,57.97
2023-02-16T21:38:50.812Z,59.30
2023-02-16T21:41:27.254Z,54.30
2023-02-16T21:44:08.058Z,57.40
2023-02-16T21:46:38.960Z,58.60
2023-02-16T21:49:08.753Z,61.77
2023-02-16T21:51:37.948Z,62.90
2023-02-16T21:54:14.556Z,61.57
2023-02-16T21:56:44.732Z,58.13
2023-02-16T21:59:14.705Z,57.43
2023-02-16T22:01:47.708Z,59.63
2023-02-16T22:04:17.932Z,61.28
2023-02-16T22:06:47.825Z,57.33
2023-02-16T22:09:19.990Z,58.13
2023-02-16T22:11:48.220Z,58.00
2023-02-16T22:14:15.863Z,59.00
2023-02-16T22:16:45.528Z,60.70
2023-02-16T22:19:15.384Z,60.37
2023-02-16T22:21:44.620Z,64.80
2023-02-16T22:24:13.957Z,67.13
2023-02-16T22:26:42.111Z,65.47
2023-02-16T22:29:10.044Z,63.83
2023-02-16T22:31:38.093Z,68.60
2023-02-16T22:34:08.249Z,64.20
2023-02-16T22:36:37.001Z,72.33
2023-02-16T22:39:05.247Z,67.00
2023-02-16T22:41:32.832Z,63.07
2023-02-16T22:44:00.585Z,66.53
2023-02-16T22:46:29.729Z,63.67
2023-02-16T22:49:02.255Z,64.73
2023-02-16T22:51:30.841Z,62.87
2023-02-16T22:54:00.215Z,61.07
2023-02-16T22:56:27.981Z,57.87
2023-02-16T22:58:57.587Z,60.70
2023-02-16T23:01:26.709Z,61.07
2023-02-16T23:03:58.887Z,66.43
2023-02-16T23:06:35.324Z,63.20
2023-02-16T23:09:13.553Z,62.90
2023-02-16T23:11:40.690Z,62.57
2023-02-16T23:14:16.699Z,62.10
2023-02-16T23:16:45.936Z,64.43
2023-02-16T23:19:17.119Z,68.30
2023-02-16T23:21:44.484Z,64.43
2023-02-16T23:24:17.634Z,67.20
2023-02-16T23:26:45.439Z,66.93
2023-02-16T23:29:12.885Z,59.80
2023-02-16T23:31:42.579Z,60.60
2023-02-16T23:34:11.366Z,61.97
2023-02-16T23:36:39.388Z,64.00
2023-02-16T23:39:12.851Z,65.97
2023-02-16T23:41:41.358Z,62.92
2023-02-16T23:44:10.284Z,62.10
2023-02-16T23:46:37.820Z,66.20
2023-02-16T23:49:05.306Z,62.87
2023-02-16T23:51:32.524Z,66.23
2023-02-16T23:54:00.130Z,63.57
2023-02-16T23:56:30.009Z,76.23
2023-02-16T23:58:59.991Z,86.07
